Time;durP1;ratioP1;P1;durP2;ratioP2;P2;SDS_P1;SDS_P2;PMS_P1;PMS_P2;Temp;Humidity;BMP_temperature;BMP_pressure;BME280_temperature;BME280_humidity;BME280_pressure;Samples;Min_cycle;Max_cycle;Signal;HPM_P1;HPM_P2
2023/07/02 00:00:05;;;;;;;20.70;6.20;;;;;;;;;;5014267;28;94747;-72
2023/07/02 00:02:31;;;;;;;15.45;5.97;;;;;;;;;;5014537;28;91820;-72
2023/07/02 00:04:58;;;;;;;16.35;6.82;;;;;;;;;;5014040;28;92683;-72
2023/07/02 00:07:25;;;;;;;18.65;6.25;;;;;;;;;;5013653;28;93486;-72
2023/07/02 00:09:52;;;;;;;24.42;5.95;;;;;;;;;;5012186;28;94811;-72
2023/07/02 00:12:18;;;;;;;12.43;5.50;;;;;;;;;;5016839;28;95669;-72
2023/07/02 00:14:45;;;;;;;20.48;6.95;;;;;;;;;;5013858;28;92514;-72
2023/07/02 00:17:14;;;;;;;17.58;5.90;;;;;;;;;;5014022;28;93226;-72
2023/07/02 00:19:41;;;;;;;22.40;5.82;;;;;;;;;;5013281;28;93603;-72
2023/07/02 00:22:10;;;;;;;25.25;5.72;;;;;;;;;;5013849;28;92408;-72
2023/07/02 00:24:37;;;;;;;14.68;5.75;;;;;;;;;;5013535;28;93494;-72
2023/07/02 00:27:03;;;;;;;14.77;6.18;;;;;;;;;;5013675;28;91715;-72
2023/07/02 00:29:30;;;;;;;19.48;5.78;;;;;;;;;;5012603;28;92465;-72
2023/07/02 00:31:56;;;;;;;13.75;4.93;;;;;;;;;;5013668;28;92650;-72
2023/07/02 00:34:23;;;;;;;18.45;6.35;;;;;;;;;;5014888;28;96288;-72
2023/07/02 00:36:49;;;;;;;14.25;5.63;;;;;;;;;;5013496;28;95576;-72
2023/07/02 00:39:17;;;;;;;18.25;5.43;;;;;;;;;;5013393;28;93444;-72
2023/07/02 00:41:46;;;;;;;14.77;5.35;;;;;;;;;;5013609;28;92471;-72
2023/07/02 00:44:13;;;;;;;13.73;5.65;;;;;;;;;;5016943;28;93119;-71
2023/07/02 00:46:39;;;;;;;16.92;5.63;;;;;;;;;;5017330;28;93291;-72
2023/07/02 00:49:05;;;;;;;19.15;6.18;;;;;;;;;;5016858;28;92457;-72
2023/07/02 00:51:32;;;;;;;17.20;7.10;;;;;;;;;;5017222;28;93131;-72
2023/07/02 00:53:58;;;;;;;16.83;6.22;;;;;;;;;;5016701;28;93418;-72
2023/07/02 00:56:26;;;;;;;20.08;6.88;;;;;;;;;;5019737;28;92432;-72
2023/07/02 00:58:53;;;;;;;19.20;7.00;;;;;;;;;;5014851;28;96067;-72
2023/07/02 01:01:20;;;;;;;25.90;7.68;;;;;;;;;;5016267;28;92479;-72
2023/07/02 01:04:07;;;;;;;28.35;7.07;;;;;;;;;;5016549;28;93133;-72
2023/07/02 01:06:34;;;;;;;13.77;6.47;;;;;;;;;;5016718;28;94421;-71
2023/07/02 01:09:05;;;;;;;22.38;7.43;;;;;;;;;;5016684;28;92566;-72
2023/07/02 01:11:32;;;;;;;17.92;7.07;;;;;;;;;;5016348;28;92953;-72
2023/07/02 01:14:04;;;;;;;17.40;7.47;;;;;;;;;;5016357;28;93526;-71
2023/07/02 01:16:32;;;;;;;21.25;7.43;;;;;;;;;;5017258;28;91743;-72
2023/07/02 01:19:03;;;;;;;25.88;8.57;;;;;;;;;;5019455;28;92690;-72
2023/07/02 01:21:30;;;;;;;25.95;7.85;;;;;;;;;;5016565;28;92363;-72
2023/07/02 01:23:56;;;;;;;22.88;7.00;;;;;;;;;;5014685;28;94830;-72
2023/07/02 01:26:22;;;;;;;21.17;7.30;;;;;;;;;;5015615;28;95198;-71
2023/07/02 01:28:50;;;;;;;26.55;8.13;;;;;;;;;;5016414;28;92549;-72
2023/07/02 01:31:17;;;;;;;18.58;6.95;;;;;;;;;;5016069;28;93387;-72
2023/07/02 01:33:43;;;;;;;17.00;6.72;;;;;;;;;;5016179;28;93795;-72
2023/07/02 01:36:10;;;;;;;18.20;7.45;;;;;;;;;;5016367;28;92441;-72
2023/07/02 01:38:36;;;;;;;20.50;6.75;;;;;;;;;;5016119;28;93206;-72
2023/07/02 01:41:02;;;;;;;19.92;6.60;;;;;;;;;;5019334;28;92766;-72
2023/07/02 01:43:28;;;;;;;20.38;7.40;;;;;;;;;;5016159;28;93051;-71
2023/07/02 01:45:56;;;;;;;20.90;6.88;;;;;;;;;;5015269;28;93939;-71
2023/07/02 01:48:22;;;;;;;24.00;7.43;;;;;;;;;;5014233;28;94896;-71
2023/07/02 01:50:49;;;;;;;21.35;6.93;;;;;;;;;;5016025;28;96581;-71
2023/07/02 01:53:15;;;;;;;32.65;7.22;;;;;;;;;;5015055;28;93847;-71
2023/07/02 01:55:42;;;;;;;26.58;7.80;;;;;;;;;;5015437;28;93441;-71
2023/07/02 01:58:08;;;;;;;26.35;7.22;;;;;;;;;;5015987;28;93545;-71
2023/07/02 02:00:34;;;;;;;17.95;7.18;;;;;;;;;;5015549;28;93491;-71
2023/07/02 02:03:01;;;;;;;22.33;7.47;;;;;;;;;;5017813;28;92527;-72
2023/07/02 02:05:27;;;;;;;15.05;6.63;;;;;;;;;;5016064;28;92720;-71
2023/07/02 02:07:54;;;;;;;25.45;7.40;;;;;;;;;;5015818;28;92392;-72
2023/07/02 02:10:20;;;;;;;21.17;6.88;;;;;;;;;;5015997;28;93993;-72
2023/07/02 02:12:47;;;;;;;28.05;7.75;;;;;;;;;;5014004;28;98480;-71
2023/07/02 02:15:14;;;;;;;19.45;6.65;;;;;;;;;;5015742;28;92646;-71
2023/07/02 02:17:40;;;;;;;31.80;7.50;;;;;;;;;;5015838;28;93711;-71
2023/07/02 02:20:08;;;;;;;26.88;7.43;;;;;;;;;;5015184;28;93581;-71
2023/07/02 02:22:34;;;;;;;22.92;6.80;;;;;;;;;;5018287;28;92455;-72
2023/07/02 02:25:00;;;;;;;33.80;8.60;;;;;;;;;;5015379;28;94796;-72
2023/07/02 02:27:27;;;;;;;15.52;7.45;;;;;;;;;;5014970;28;92567;-71
2023/07/02 02:29:53;;;;;;;30.48;8.48;;;;;;;;;;5015874;28;93176;-71
2023/07/02 02:32:21;;;;;;;22.38;8.35;;;;;;;;;;5015119;28;93642;-71
2023/07/02 02:34:48;;;;;;;25.25;7.18;;;;;;;;;;5015495;28;92437;-71
2023/07/02 02:37:14;;;;;;;21.27;7.72;;;;;;;;;;5013692;28;95268;-71
2023/07/02 02:39:40;;;;;;;23.08;7.20;;;;;;;;;;5015072;28;93864;-71
2023/07/02 02:42:07;;;;;;;20.45;7.82;;;;;;;;;;5015323;28;92794;-71
2023/07/02 02:44:34;;;;;;;26.90;8.07;;;;;;;;;;5018171;28;94248;-71
2023/07/02 02:47:00;;;;;;;24.83;8.63;;;;;;;;;;5015295;28;92416;-72
2023/07/02 02:49:27;;;;;;;23.30;8.18;;;;;;;;;;5015388;28;95679;-71
2023/07/02 02:51:53;;;;;;;23.23;7.68;;;;;;;;;;5014592;28;93600;-71
2023/07/02 02:54:19;;;;;;;25.75;7.93;;;;;;;;;;5015732;28;91627;-72
2023/07/02 02:56:46;;;;;;;24.45;7.80;;;;;;;;;;5014983;28;92648;-72
2023/07/02 02:59:12;;;;;;;31.10;9.05;;;;;;;;;;5014960;28;93454;-71
2023/07/02 03:01:39;;;;;;;24.58;7.82;;;;;;;;;;5013266;28;95155;-71
2023/07/02 03:04:08;;;;;;;21.40;7.63;;;;;;;;;;5014605;28;94814;-71
2023/07/02 03:06:34;;;;;;;20.83;7.88;;;;;;;;;;5015601;28;94809;-72
2023/07/02 03:09:01;;;;;;;19.83;7.10;;;;;;;;;;5014843;28;93229;-71
2023/07/02 03:11:27;;;;;;;23.00;7.57;;;;;;;;;;5014425;28;93404;-71
2023/07/02 03:13:53;;;;;;;24.65;7.90;;;;;;;;;;5014693;28;92518;-72
2023/07/02 03:16:21;;;;;;;20.25;7.60;;;;;;;;;;5014880;28;93186;-71
2023/07/02 03:18:48;;;;;;;29.27;8.40;;;;;;;;;;5015081;28;93980;-72
2023/07/02 03:21:14;;;;;;;18.50;7.25;;;;;;;;;;5014580;28;92447;-71
2023/07/02 03:23:41;;;;;;;23.77;8.23;;;;;;;;;;5014710;28;94267;-71
2023/07/02 03:26:07;;;;;;;23.00;7.82;;;;;;;;;;5012490;28;95915;-71
2023/07/02 03:28:34;;;;;;;17.65;7.30;;;;;;;;;;5017612;28;92407;-71
2023/07/02 03:31:01;;;;;;;27.88;7.25;;;;;;;;;;5012936;28;93110;-71
2023/07/02 03:33:27;;;;;;;24.42;8.95;;;;;;;;;;5013816;28;93613;-71
2023/07/02 03:35:54;;;;;;;24.02;7.97;;;;;;;;;;5014285;28;93653;-72
2023/07/02 03:38:20;;;;;;;29.25;8.50;;;;;;;;;;5013949;28;93428;-72
2023/07/02 03:40:46;;;;;;;21.10;7.43;;;;;;;;;;5014216;28;92856;-72
2023/07/02 03:43:13;;;;;;;20.77;8.15;;;;;;;;;;5014599;28;93134;-71
2023/07/02 03:45:40;;;;;;;31.25;8.77;;;;;;;;;;5013588;28;93473;-72
2023/07/02 03:48:06;;;;;;;24.02;8.20;;;;;;;;;;5014150;28;92526;-71
2023/07/02 03:50:32;;;;;;;19.02;7.65;;;;;;;;;;5015521;28;94798;-72
2023/07/02 03:52:59;;;;;;;23.50;8.07;;;;;;;;;;5013712;28;92517;-71
2023/07/02 03:55:25;;;;;;;21.48;7.78;;;;;;;;;;5013773;28;93072;-71
2023/07/02 03:57:51;;;;;;;26.80;7.82;;;;;;;;;;5013464;28;93473;-72
2023/07/02 04:00:18;;;;;;;26.20;8.35;;;;;;;;;;5014004;28;92499;-71
2023/07/02 04:02:44;;;;;;;28.90;8.32;;;;;;;;;;5013664;28;93643;-72
2023/07/02 04:05:11;;;;;;;21.60;8.02;;;;;;;;;;5013606;28;93635;-71
2023/07/02 04:07:37;;;;;;;27.83;8.32;;;;;;;;;;5014146;28;91718;-71
2023/07/02 04:10:04;;;;;;;33.83;8.85;;;;;;;;;;5013902;28;92415;-71
2023/07/02 04:12:30;;;;;;;30.33;8.90;;;;;;;;;;5016578;28;93642;-72
2023/07/02 04:14:57;;;;;;;27.85;8.77;;;;;;;;;;5012212;28;94841;-71
2023/07/02 04:17:23;;;;;;;21.65;8.50;;;;;;;;;;5015684;28;93569;-71
2023/07/02 04:19:49;;;;;;;26.05;8.90;;;;;;;;;;5017595;28;92478;-71
2023/07/02 04:22:16;;;;;;;25.60;8.98;;;;;;;;;;5017098;28;93402;-71
2023/07/02 04:24:42;;;;;;;25.77;8.65;;;;;;;;;;5016958;28;93466;-71
2023/07/02 04:27:13;;;;;;;25.95;7.90;;;;;;;;;;5016903;28;93234;-72
2023/07/02 04:29:59;;;;;;;31.70;8.68;;;;;;;;;;5017198;28;94699;-72
2023/07/02 04:32:25;;;;;;;20.15;7.63;;;;;;;;;;5020274;28;92766;-71
2023/07/02 04:34:52;;;;;;;22.75;8.10;;;;;;;;;;5016949;28;92757;-72
2023/07/02 04:37:18;;;;;;;31.48;9.05;;;;;;;;;;5016537;28;93233;-71
2023/07/02 04:39:45;;;;;;;27.85;8.35;;;;;;;;;;5015577;28;94878;-71
2023/07/02 04:42:13;;;;;;;27.50;9.00;;;;;;;;;;5016253;28;95504;-72
2023/07/02 04:44:39;;;;;;;35.42;9.68;;;;;;;;;;5016285;28;93634;-71
2023/07/02 04:47:06;;;;;;;29.77;8.85;;;;;;;;;;5017030;28;92487;-71
2023/07/02 04:49:32;;;;;;;25.35;8.85;;;;;;;;;;5016779;28;93278;-71
2023/07/02 04:51:58;;;;;;;25.90;8.77;;;;;;;;;;5016963;28;93506;-71
2023/07/02 04:54:25;;;;;;;24.65;8.27;;;;;;;;;;5019975;28;92510;-71
2023/07/02 04:56:51;;;;;;;27.65;8.68;;;;;;;;;;5016582;28;93166;-72
2023/07/02 04:59:21;;;;;;;31.40;8.88;;;;;;;;;;5016664;28;92557;-71
2023/07/02 05:01:48;;;;;;;27.20;8.07;;;;;;;;;;5016463;28;93548;-71
2023/07/02 05:04:14;;;;;;;26.60;7.85;;;;;;;;;;5014569;28;95766;-71
2023/07/02 05:06:40;;;;;;;29.15;8.82;;;;;;;;;;5016384;28;92464;-71
2023/07/02 05:09:07;;;;;;;27.45;9.10;;;;;;;;;;5016375;28;93474;-71
2023/07/02 05:11:33;;;;;;;27.13;8.23;;;;;;;;;;5016216;28;93455;-71
2023/07/02 05:13:59;;;;;;;29.17;9.48;;;;;;;;;;5016437;28;92940;-71
2023/07/02 05:16:26;;;;;;;30.80;9.57;;;;;;;;;;5019868;28;94224;-71
2023/07/02 05:18:52;;;;;;;37.10;9.18;;;;;;;;;;5016042;28;92684;-71
2023/07/02 05:21:19;;;;;;;29.20;9.20;;;;;;;;;;5016862;28;93405;-71
2023/07/02 05:23:45;;;;;;;25.40;8.20;;;;;;;;;;5016006;28;93435;-71
2023/07/02 05:26:11;;;;;;;27.92;8.77;;;;;;;;;;5015347;28;92492;-71
2023/07/02 05:28:38;;;;;;;30.40;8.88;;;;;;;;;;5013480;28;94736;-71
2023/07/02 05:31:04;;;;;;;24.15;8.30;;;;;;;;;;5016134;28;93493;-71
2023/07/02 05:33:33;;;;;;;41.88;9.40;;;;;;;;;;5016113;28;92406;-71
2023/07/02 05:36:00;;;;;;;28.05;8.57;;;;;;;;;;5016166;28;93506;-71
2023/07/02 05:38:26;;;;;;;31.48;9.10;;;;;;;;;;5018580;28;93438;-71
2023/07/02 05:40:52;;;;;;;33.00;9.07;;;;;;;;;;5015775;28;93526;-71
2023/07/02 05:43:19;;;;;;;32.33;8.32;;;;;;;;;;5015803;28;93445;-71
2023/07/02 05:45:45;;;;;;;31.15;8.82;;;;;;;;;;5016089;28;91789;-71
2023/07/02 05:48:11;;;;;;;30.90;8.38;;;;;;;;;;5016273;28;93416;-71
2023/07/02 05:50:38;;;;;;;26.95;8.43;;;;;;;;;;5015671;28;93478;-72
2023/07/02 05:53:04;;;;;;;26.50;8.20;;;;;;;;;;5013976;28;94929;-71
2023/07/02 05:55:31;;;;;;;33.25;8.90;;;;;;;;;;5015604;28;94339;-71
2023/07/02 05:58:01;;;;;;;31.40;9.50;;;;;;;;;;5015408;28;93461;-71
2023/07/02 06:00:27;;;;;;;25.98;8.40;;;;;;;;;;5018595;28;93838;-71
2023/07/02 06:02:54;;;;;;;28.88;8.57;;;;;;;;;;5015602;28;93582;-71
2023/07/02 06:05:21;;;;;;;24.55;8.00;;;;;;;;;;5015394;28;92632;-70
2023/07/02 06:07:47;;;;;;;26.58;7.95;;;;;;;;;;5015545;28;93561;-71
2023/07/02 06:10:14;;;;;;;31.42;8.27;;;;;;;;;;5015974;28;94165;-71
2023/07/02 06:12:41;;;;;;;23.08;7.55;;;;;;;;;;5015343;28;92712;-71
2023/07/02 06:15:08;;;;;;;31.90;8.07;;;;;;;;;;5015359;28;93218;-70
2023/07/02 06:17:34;;;;;;;29.95;7.50;;;;;;;;;;5014047;28;95990;-70
2023/07/02 06:20:05;;;;;;;27.90;7.93;;;;;;;;;;5015244;28;92685;-71
2023/07/02 06:22:32;;;;;;;29.90;7.70;;;;;;;;;;5018433;28;94680;-70
2023/07/02 06:24:58;;;;;;;24.48;7.32;;;;;;;;;;5015410;28;92407;-70
2023/07/02 06:27:25;;;;;;;27.25;7.35;;;;;;;;;;5014843;28;93542;-70
2023/07/02 06:29:52;;;;;;;27.05;8.15;;;;;;;;;;5014944;28;93168;-70
2023/07/02 06:32:18;;;;;;;26.67;7.18;;;;;;;;;;5015324;28;92864;-70
2023/07/02 06:34:45;;;;;;;27.88;7.72;;;;;;;;;;5015437;28;93315;-70
2023/07/02 06:37:12;;;;;;;24.70;7.57;;;;;;;;;;5014847;28;92691;-71
2023/07/02 06:39:38;;;;;;;28.33;7.93;;;;;;;;;;5015131;28;92742;-71
2023/07/02 06:42:05;;;;;;;28.85;6.65;;;;;;;;;;5014928;28;95581;-70
2023/07/02 06:44:31;;;;;;;20.10;7.03;;;;;;;;;;5014543;28;92443;-70
2023/07/02 06:46:57;;;;;;;25.40;7.32;;;;;;;;;;5006845;28;93226;-70
2023/07/02 06:49:24;;;;;;;31.55;7.03;;;;;;;;;;4995060;28;92503;-70
2023/07/02 06:51:50;;;;;;;16.40;6.07;;;;;;;;;;5011335;28;92414;-71
2023/07/02 06:54:17;;;;;;;29.95;7.75;;;;;;;;;;5014800;28;93317;-70
2023/07/02 06:56:43;;;;;;;24.67;6.90;;;;;;;;;;5014701;28;93279;-71
2023/07/02 06:59:09;;;;;;;24.38;6.82;;;;;;;;;;5015216;28;92195;-70
2023/07/02 07:01:36;;;;;;;22.55;6.90;;;;;;;;;;5014657;28;92515;-71
2023/07/02 07:04:03;;;;;;;29.35;6.70;;;;;;;;;;5017199;28;94518;-71
2023/07/02 07:06:29;;;;;;;28.02;7.00;;;;;;;;;;5013273;28;94774;-70
2023/07/02 07:08:55;;;;;;;22.83;6.60;;;;;;;;;;5014552;28;94367;-71
2023/07/02 07:11:22;;;;;;;25.23;7.07;;;;;;;;;;5012857;28;92461;-71
2023/07/02 07:13:48;;;;;;;18.65;6.70;;;;;;;;;;5014602;28;92978;-71
2023/07/02 07:16:15;;;;;;;28.60;5.90;;;;;;;;;;5014525;28;93432;-71
2023/07/02 07:18:43;;;;;;;22.63;6.53;;;;;;;;;;5014083;28;92441;-72
2023/07/02 07:21:09;;;;;;;26.42;6.25;;;;;;;;;;5014187;28;93041;-71
2023/07/02 07:23:36;;;;;;;24.27;6.38;;;;;;;;;;5013405;28;92645;-72
2023/07/02 07:26:02;;;;;;;18.52;6.82;;;;;;;;;;5016975;28;92748;-71
2023/07/02 07:28:29;;;;;;;17.85;6.82;;;;;;;;;;5014125;28;93948;-71
2023/07/02 07:30:55;;;;;;;23.08;6.65;;;;;;;;;;5013027;28;94838;-72
2023/07/02 07:33:21;;;;;;;21.13;6.00;;;;;;;;;;5014250;28;96462;-71
2023/07/02 07:35:48;;;;;;;20.85;6.15;;;;;;;;;;5013915;28;93620;-71
2023/07/02 07:38:14;;;;;;;16.35;5.32;;;;;;;;;;5012678;28;92447;-71
2023/07/02 07:40:41;;;;;;;17.52;5.60;;;;;;;;;;5014318;28;94039;-71
2023/07/02 07:43:08;;;;;;;17.17;5.60;;;;;;;;;;5013723;28;93944;-71
2023/07/02 07:45:34;;;;;;;21.50;6.65;;;;;;;;;;5013902;28;92434;-72
2023/07/02 07:48:01;;;;;;;16.17;5.57;;;;;;;;;;5017685;28;93690;-72
2023/07/02 07:50:27;;;;;;;17.17;5.72;;;;;;;;;;5013851;28;93364;-71
2023/07/02 07:52:54;;;;;;;17.40;5.13;;;;;;;;;;5013382;28;93179;-71
2023/07/02 07:55:20;;;;;;;19.83;5.85;;;;;;;;;;5011628;28;95833;-70
2023/07/02 07:57:47;;;;;;;24.92;5.45;;;;;;;;;;5013742;28;92470;-71
2023/07/02 08:00:14;;;;;;;15.80;5.78;;;;;;;;;;5013538;28;93159;-71
2023/07/02 08:02:40;;;;;;;27.92;5.75;;;;;;;;;;5012239;28;93440;-71
2023/07/02 08:05:07;;;;;;;15.55;4.70;;;;;;;;;;5013770;28;92394;-71
2023/07/02 08:07:33;;;;;;;12.90;4.70;;;;;;;;;;5014068;28;94215;-71
2023/07/02 08:10:00;;;;;;;19.08;5.43;;;;;;;;;;5016952;28;94299;-71
2023/07/02 08:12:28;;;;;;;14.05;5.15;;;;;;;;;;5014086;28;93048;-71
2023/07/02 08:14:55;;;;;;;12.68;5.00;;;;;;;;;;5013474;28;93557;-71
2023/07/02 08:17:21;;;;;;;17.33;5.40;;;;;;;;;;5014244;28;92871;-71
2023/07/02 08:19:48;;;;;;;12.48;4.90;;;;;;;;;;5011961;28;94772;-70
2023/07/02 08:22:14;;;;;;;15.90;5.20;;;;;;;;;;5013551;28;93398;-71
2023/07/02 08:24:41;;;;;;;15.52;5.10;;;;;;;;;;5013649;28;92404;-71
2023/07/02 08:27:10;;;;;;;18.58;5.50;;;;;;;;;;5013009;28;93471;-71
2023/07/02 08:29:36;;;;;;;18.20;5.65;;;;;;;;;;5013227;28;93476;-71
2023/07/02 08:32:03;;;;;;;15.20;4.90;;;;;;;;;;5016950;28;92387;-71
2023/07/02 08:34:29;;;;;;;15.45;5.68;;;;;;;;;;5013534;28;94523;-71
2023/07/02 08:36:56;;;;;;;14.23;4.90;;;;;;;;;;5013775;28;91697;-71
2023/07/02 08:39:22;;;;;;;17.10;5.15;;;;;;;;;;5013464;28;92487;-71
2023/07/02 08:41:48;;;;;;;15.85;5.47;;;;;;;;;;5011718;28;93494;-71
2023/07/02 08:44:18;;;;;;;16.27;5.07;;;;;;;;;;5011620;28;94894;-71
2023/07/02 08:46:47;;;;;;;19.08;5.72;;;;;;;;;;5013708;28;96787;-71
2023/07/02 08:49:13;;;;;;;14.35;4.70;;;;;;;;;;5012024;28;93424;-72
2023/07/02 08:51:40;;;;;;;15.27;5.10;;;;;;;;;;5016424;28;92682;-71
2023/07/02 08:54:06;;;;;;;12.70;4.93;;;;;;;;;;5013136;28;93550;-72
2023/07/02 08:56:33;;;;;;;16.40;5.50;;;;;;;;;;5012727;28;92436;-71
2023/07/02 08:58:59;;;;;;;10.57;4.00;;;;;;;;;;5013476;28;94197;-71
2023/07/02 09:01:25;;;;;;;11.73;4.93;;;;;;;;;;5013380;28;92687;-71
2023/07/02 09:03:52;;;;;;;16.95;4.65;;;;;;;;;;5014414;28;92680;-71
2023/07/02 09:06:19;;;;;;;14.68;3.97;;;;;;;;;;5016606;28;93113;-71
2023/07/02 09:08:45;;;;;;;14.60;4.68;;;;;;;;;;5013026;28;96048;-71
2023/07/02 09:11:12;;;;;;;12.02;4.72;;;;;;;;;;5016411;28;92452;-71
2023/07/02 09:13:43;;;;;;;20.05;4.47;;;;;;;;;;5019338;28;93379;-71
2023/07/02 09:16:25;;;;;;;12.15;4.63;;;;;;;;;;5016784;28;92485;-72
2023/07/02 09:18:58;;;;;;;13.48;4.25;;;;;;;;;;5016204;28;93580;-72
2023/07/02 09:21:37;;;;;;;15.25;4.70;;;;;;;;;;5014795;28;93827;-72
2023/07/02 09:24:11;;;;;;;12.00;4.20;;;;;;;;;;5015905;28;92426;-72
2023/07/02 09:26:37;;;;;;;15.68;4.75;;;;;;;;;;5016600;28;93213;-72
2023/07/02 09:29:04;;;;;;;12.70;4.28;;;;;;;;;;5015993;28;93455;-72
2023/07/02 09:31:30;;;;;;;18.75;4.03;;;;;;;;;;5016157;28;92432;-72
2023/07/02 09:34:01;;;;;;;9.45;4.03;;;;;;;;;;5014152;28;94816;-72
2023/07/02 09:36:27;;;;;;;20.75;5.20;;;;;;;;;;5019030;28;93398;-72
2023/07/02 09:38:54;;;;;;;14.35;4.50;;;;;;;;;;5016154;28;94529;-72
2023/07/02 09:41:20;;;;;;;13.48;3.80;;;;;;;;;;5015845;28;93599;-73
2023/07/02 09:43:47;;;;;;;11.95;4.25;;;;;;;;;;5015810;28;92402;-72
2023/07/02 09:46:13;;;;;;;13.43;3.80;;;;;;;;;;5015893;28;93777;-72
2023/07/02 09:48:39;;;;;;;14.02;4.60;;;;;;;;;;5015575;28;93804;-72
2023/07/02 09:51:06;;;;;;;12.57;3.50;;;;;;;;;;5016359;28;91710;-72
2023/07/02 09:53:32;;;;;;;6.75;2.92;;;;;;;;;;5015893;28;92633;-72
2023/07/02 09:55:59;;;;;;;9.43;3.58;;;;;;;;;;5015421;28;93502;-72
2023/07/02 09:58:25;;;;;;;7.07;3.08;;;;;;;;;;5017364;28;95236;-72
2023/07/02 10:00:52;;;;;;;8.65;2.90;;;;;;;;;;5004896;28;93483;-72
2023/07/02 10:03:27;;;;;;;9.65;2.95;;;;;;;;;;4995691;28;92442;-72
2023/07/02 10:06:02;;;;;;;9.63;3.42;;;;;;;;;;4995808;28;94224;-72
2023/07/02 10:08:30;;;;;;;8.05;3.25;;;;;;;;;;4995414;28;93511;-72
2023/07/02 10:11:09;;;;;;;6.30;2.85;;;;;;;;;;4995561;28;92387;-72
2023/07/02 10:13:36;;;;;;;6.18;3.28;;;;;;;;;;4995382;28;93639;-72
2023/07/02 10:16:06;;;;;;;9.98;3.30;;;;;;;;;;4996296;28;93013;-72
2023/07/02 10:18:32;;;;;;;12.18;3.40;;;;;;;;;;5015417;28;92632;-72
2023/07/02 10:20:59;;;;;;;5.93;2.85;;;;;;;;;;5017386;28;93934;-72
2023/07/02 10:23:35;;;;;;;12.15;3.10;;;;;;;;;;5013737;28;94849;-72
2023/07/02 10:26:17;;;;;;;10.52;3.25;;;;;;;;;;5014391;28;96036;-72
2023/07/02 10:29:10;;;;;;;6.78;3.20;;;;;;;;;;5014952;28;93380;-72
2023/07/02 10:31:47;;;;;;;6.75;2.92;;;;;;;;;;5013725;28;92839;-72
2023/07/02 10:34:13;;;;;;;4.90;2.80;;;;;;;;;;5014861;28;93119;-72
2023/07/02 10:36:39;;;;;;;7.10;3.17;;;;;;;;;;5014978;28;93760;-73
2023/07/02 10:39:06;;;;;;;11.13;2.55;;;;;;;;;;5015054;28;92528;-72
2023/07/02 10:41:33;;;;;;;7.13;2.90;;;;;;;;;;5018271;28;93259;-72
2023/07/02 10:44:09;;;;;;;5.82;2.55;;;;;;;;;;5014877;28;92473;-72
2023/07/02 10:46:48;;;;;;;13.15;3.08;;;;;;;;;;5015638;28;93219;-72
2023/07/02 10:49:16;;;;;;;5.75;2.92;;;;;;;;;;5012389;28;94858;-72
2023/07/02 10:51:43;;;;;;;6.47;3.00;;;;;;;;;;5014422;28;92511;-72
2023/07/02 10:54:09;;;;;;;7.63;2.65;;;;;;;;;;5015194;28;94069;-72
2023/07/02 10:56:35;;;;;;;9.43;3.13;;;;;;;;;;5014394;28;93474;-72
2023/07/02 10:59:03;;;;;;;8.85;3.22;;;;;;;;;;5014682;28;92503;-73
2023/07/02 11:01:30;;;;;;;6.47;2.90;;;;;;;;;;5014823;28;93191;-72
2023/07/02 11:04:01;;;;;;;7.93;3.13;;;;;;;;;;5017589;28;93820;-72
2023/07/02 11:06:27;;;;;;;;;;;;;;;;;;5015552;28;93146;-72
2023/07/02 11:08:54;;;;;;;7.72;3.55;;;;;;;;;;5014891;28;123647;-72
2023/07/02 11:11:22;;;;;;;17.60;4.00;;;;;;;;;;5014745;28;92698;-73
2023/07/02 11:13:52;;;;;;;12.05;3.78;;;;;;;;;;5011386;28;95213;-74
2023/07/02 11:16:19;;;;;;;13.20;3.83;;;;;;;;;;5014429;28;93340;-72
2023/07/02 11:18:45;;;;;;;9.82;3.83;;;;;;;;;;5014418;28;92409;-71
2023/07/02 11:21:12;;;;;;;14.63;3.67;;;;;;;;;;5014396;28;94242;-71
2023/07/02 11:23:38;;;;;;;7.53;3.33;;;;;;;;;;5014355;28;93550;-72
2023/07/02 11:26:05;;;;;;;6.15;2.90;;;;;;;;;;5015917;28;92504;-74
2023/07/02 11:28:31;;;;;;;9.02;3.45;;;;;;;;;;5013554;28;93611;-74
2023/07/02 11:30:58;;;;;;;7.50;2.97;;;;;;;;;;5014628;28;91810;-72
2023/07/02 11:33:37;;;;;;;9.82;3.83;;;;;;;;;;5014335;28;92857;-71
2023/07/02 11:36:04;;;;;;;7.60;3.38;;;;;;;;;;5013802;28;93625;-74
2023/07/02 11:38:31;;;;;;;6.45;3.35;;;;;;;;;;5012427;28;94869;-74
2023/07/02 11:40:57;;;;;;;5.55;3.05;;;;;;;;;;5013567;28;96068;-74
2023/07/02 11:43:24;;;;;;;12.63;3.95;;;;;;;;;;5014040;28;94596;-72
2023/07/02 11:45:51;;;;;;;8.45;3.53;;;;;;;;;;5014086;28;92368;-72
2023/07/02 11:48:17;;;;;;;8.07;2.92;;;;;;;;;;5015810;28;93719;-72
2023/07/02 11:50:43;;;;;;;8.85;3.17;;;;;;;;;;5014112;28;92407;-72
2023/07/02 11:53:10;;;;;;;5.93;3.05;;;;;;;;;;5014231;28;97097;-72
2023/07/02 11:55:37;;;;;;;11.73;3.65;;;;;;;;;;5013822;28;92812;-72
2023/07/02 11:58:03;;;;;;;10.10;3.33;;;;;;;;;;5013701;28;92466;-72
2023/07/02 12:00:29;;;;;;;12.65;3.75;;;;;;;;;;5013853;28;92957;-71
2023/07/02 12:02:56;;;;;;;12.68;3.55;;;;;;;;;;5011872;28;96298;-71
2023/07/02 12:05:22;;;;;;;7.90;3.20;;;;;;;;;;5013455;28;92403;-72
2023/07/02 12:07:49;;;;;;;7.25;3.60;;;;;;;;;;5013818;28;92948;-72
2023/07/02 12:10:15;;;;;;;8.57;3.28;;;;;;;;;;5016467;28;94334;-72
2023/07/02 12:12:42;;;;;;;6.80;3.45;;;;;;;;;;5013486;28;93061;-72
2023/07/02 12:15:08;;;;;;;14.75;3.92;;;;;;;;;;5013528;28;94589;-74
2023/07/02 12:17:34;;;;;;;9.07;3.17;;;;;;;;;;5013784;28;92523;-72
2023/07/02 12:20:01;;;;;;;6.50;3.42;;;;;;;;;;5014062;28;93474;-74
2023/07/02 12:22:27;;;;;;;10.23;3.78;;;;;;;;;;5013181;28;93533;-74
2023/07/02 12:24:56;;;;;;;7.90;3.45;;;;;;;;;;5013209;28;93213;-72
2023/07/02 12:27:22;;;;;;;7.68;3.47;;;;;;;;;;5011383;28;95184;-72
2023/07/02 12:29:49;;;;;;;10.73;4.28;;;;;;;;;;5013373;28;93457;-72
2023/07/02 12:32:15;;;;;;;10.82;3.80;;;;;;;;;;5016531;28;92384;-72
2023/07/02 12:34:42;;;;;;;10.23;3.40;;;;;;;;;;5013289;28;93438;-74
2023/07/02 12:37:08;;;;;;;12.80;4.07;;;;;;;;;;5013601;28;92412;-73
2023/07/02 12:39:34;;;;;;;16.80;4.18;;;;;;;;;;5016977;28;94054;-73
2023/07/02 12:42:01;;;;;;;12.25;4.50;;;;;;;;;;5016588;28;93475;-73
2023/07/02 12:44:27;;;;;;;13.02;4.18;;;;;;;;;;5016070;28;91806;-74
2023/07/02 12:46:54;;;;;;;9.90;4.30;;;;;;;;;;5016893;28;92636;-73
2023/07/02 12:49:20;;;;;;;7.35;3.90;;;;;;;;;;5015593;28;93198;-73
2023/07/02 12:51:47;;;;;;;13.65;4.07;;;;;;;;;;5017904;28;94857;-73
2023/07/02 12:54:13;;;;;;;7.40;3.67;;;;;;;;;;5016516;28;94096;-73
2023/07/02 12:56:39;;;;;;;9.80;4.22;;;;;;;;;;5016646;28;92710;-73
2023/07/02 12:59:06;;;;;;;7.95;3.45;;;;;;;;;;5016877;28;94302;-73
2023/07/02 13:01:32;;;;;;;9.95;3.85;;;;;;;;;;5016370;28;93489;-74
2023/07/02 13:03:59;;;;;;;7.72;3.88;;;;;;;;;;5016645;28;92488;-73
2023/07/02 13:06:27;;;;;;;7.25;3.45;;;;;;;;;;5016245;28;93329;-73
2023/07/02 13:08:55;;;;;;;14.07;3.97;;;;;;;;;;5016510;28;92701;-73
2023/07/02 13:11:22;;;;;;;9.05;3.75;;;;;;;;;;5016334;28;92879;-73
2023/07/02 13:13:48;;;;;;;13.18;4.35;;;;;;;;;;5019188;28;93495;-73
2023/07/02 13:16:14;;;;;;;9.90;3.92;;;;;;;;;;5014963;28;94860;-73
2023/07/02 13:18:41;;;;;;;5.65;3.30;;;;;;;;;;5016436;28;96702;-73
2023/07/02 13:21:07;;;;;;;12.13;3.88;;;;;;;;;;5014417;28;93639;-73
2023/07/02 13:23:34;;;;;;;9.20;3.67;;;;;;;;;;5016587;28;92484;-73
2023/07/02 13:26:00;;;;;;;9.27;3.80;;;;;;;;;;5015774;28;93306;-73
2023/07/02 13:28:28;;;;;;;7.47;3.63;;;;;;;;;;5015779;28;93505;-73
2023/07/02 13:30:54;;;;;;;11.43;4.43;;;;;;;;;;5015028;28;92535;-73
2023/07/02 13:33:20;;;;;;;8.07;3.70;;;;;;;;;;5016521;28;93672;-73
2023/07/02 13:35:47;;;;;;;9.65;4.15;;;;;;;;;;5018873;28;93603;-73
2023/07/02 13:38:14;;;;;;;10.80;3.63;;;;;;;;;;5015098;28;94199;-73
2023/07/02 13:40:40;;;;;;;11.18;3.63;;;;;;;;;;5013952;28;95855;-73
2023/07/02 13:43:07;;;;;;;16.35;3.72;;;;;;;;;;5016039;28;92448;-73
2023/07/02 13:45:33;;;;;;;10.23;4.05;;;;;;;;;;5015879;28;94472;-73
2023/07/02 13:47:59;;;;;;;11.80;4.60;;;;;;;;;;5014808;28;94379;-73
2023/07/02 13:50:26;;;;;;;13.02;4.15;;;;;;;;;;5014887;28;92883;-73
2023/07/02 13:52:52;;;;;;;11.65;4.13;;;;;;;;;;5015562;28;93216;-73
2023/07/02 13:55:20;;;;;;;13.25;4.13;;;;;;;;;;5015731;28;92359;-74
2023/07/02 13:57:47;;;;;;;15.73;4.40;;;;;;;;;;5019574;28;91661;-73
2023/07/02 14:00:13;;;;;;;12.25;3.40;;;;;;;;;;5015276;28;93630;-74
2023/07/02 14:02:40;;;;;;;11.95;4.25;;;;;;;;;;5015520;28;92399;-73
2023/07/02 14:05:07;;;;;;;13.73;4.32;;;;;;;;;;5014197;28;94757;-73
2023/07/02 14:07:33;;;;;;;14.55;4.57;;;;;;;;;;5015366;28;93459;-74
2023/07/02 14:10:00;;;;;;;10.40;3.92;;;;;;;;;;5016043;28;92398;-73
2023/07/02 14:12:27;;;;;;;7.85;4.10;;;;;;;;;;5015511;28;93116;-73
2023/07/02 14:14:53;;;;;;;10.73;3.83;;;;;;;;;;5014071;28;93395;-74
2023/07/02 14:17:20;;;;;;;17.13;4.53;;;;;;;;;;5015598;28;92431;-73
2023/07/02 14:19:46;;;;;;;16.77;4.22;;;;;;;;;;5018117;28;93516;-73
2023/07/02 14:22:13;;;;;;;13.55;4.38;;;;;;;;;;5015599;28;91778;-73
2023/07/02 14:24:39;;;;;;;13.75;4.28;;;;;;;;;;5015972;28;95522;-73
2023/07/02 14:27:05;;;;;;;13.00;4.15;;;;;;;;;;5014604;28;93279;-74
2023/07/02 14:29:32;;;;;;;15.00;5.40;;;;;;;;;;5013685;28;95169;-74
2023/07/02 14:31:58;;;;;;;11.80;4.78;;;;;;;;;;5014362;28;95993;-74